Time;durP1;ratioP1;P1;durP2;ratioP2;P2;SDS_P1;SDS_P2;PMS_P1;PMS_P2;Temp;Humidity;BMP_temperature;BMP_pressure;BME280_temperature;BME280_humidity;BME280_pressure;Samples;Min_cycle;Max_cycle;Signal;HPM_P1;HPM_P2
2022/05/24 00:00:12;;;;;;;20.02;10.10;;;;;;;;;;2115429;28;19924;-61
2022/05/24 00:01:14;;;;;;;19.52;11.85;;;;;;;;;;2115326;28;20118;-61
2022/05/24 00:02:14;;;;;;;21.70;10.40;;;;;;;;;;2115197;28;20430;-61
2022/05/24 00:03:17;;;;;;;19.20;11.35;;;;;;;;;;2115275;28;20071;-60
2022/05/24 00:04:18;;;;;;;21.65;10.02;;;;;;;;;;2115308;28;20126;-60
2022/05/24 00:05:20;;;;;;;23.85;11.07;;;;;;;;;;2115383;28;20050;-60
2022/05/24 00:06:22;;;;;;;22.17;12.95;;;;;;;;;;2115116;28;20497;-59
2022/05/24 00:07:23;;;;;;;19.80;9.60;;;;;;;;;;2115351;28;20134;-61
2022/05/24 00:08:24;;;;;;;17.60;11.07;;;;;;;;;;2115216;28;20119;-60
2022/05/24 00:09:25;;;;;;;19.58;11.30;;;;;;;;;;2115306;28;20131;-61
2022/05/24 00:10:28;;;;;;;22.30;10.52;;;;;;;;;;2115248;28;20063;-61
2022/05/24 00:11:29;;;;;;;23.23;12.43;;;;;;;;;;2115120;28;20130;-60
2022/05/24 00:12:30;;;;;;;22.38;10.45;;;;;;;;;;2115118;28;20131;-61
2022/05/24 00:13:31;;;;;;;20.25;10.02;;;;;;;;;;2115110;28;20134;-59
2022/05/24 00:15:52;;;;;;;20.98;9.98;;;;;;;;;;2115296;28;20130;-61
2022/05/24 00:16:53;;;;;;;18.42;11.20;;;;;;;;;;2115224;28;20131;-61
2022/05/24 00:17:56;;;;;;;19.23;9.82;;;;;;;;;;2115290;28;20063;-61
2022/05/24 00:18:57;;;;;;;17.55;10.35;;;;;;;;;;2109916;28;20140;-61
2022/05/24 00:19:58;;;;;;;27.90;10.75;;;;;;;;;;2106590;28;20131;-60
2022/05/24 00:21:00;;;;;;;18.00;9.98;;;;;;;;;;2106749;28;20417;-60
2022/05/24 00:22:01;;;;;;;24.45;12.23;;;;;;;;;;2106704;28;20127;-61
2022/05/24 00:23:03;;;;;;;17.53;9.40;;;;;;;;;;2106630;28;20048;-60
2022/05/24 00:24:04;;;;;;;20.65;10.25;;;;;;;;;;2106492;28;20485;-60
2022/05/24 00:25:06;;;;;;;22.00;12.23;;;;;;;;;;2106774;28;20122;-61
2022/05/24 00:26:09;;;;;;;18.27;10.63;;;;;;;;;;2106510;28;20048;-61
2022/05/24 00:27:10;;;;;;;23.27;11.60;;;;;;;;;;2106703;28;20127;-61
2022/05/24 00:28:12;;;;;;;21.27;12.07;;;;;;;;;;2106696;28;20135;-59
2022/05/24 00:29:13;;;;;;;22.00;10.77;;;;;;;;;;2106666;28;20051;-61
2022/05/24 00:30:15;;;;;;;18.30;9.80;;;;;;;;;;2106730;28;20052;-61
2022/05/24 00:31:17;;;;;;;18.85;10.80;;;;;;;;;;2106509;28;20119;-61
2022/05/24 00:32:18;;;;;;;22.17;11.77;;;;;;;;;;2106577;28;20490;-61
2022/05/24 00:33:21;;;;;;;21.47;11.60;;;;;;;;;;2106643;28;20036;-61
2022/05/24 00:34:22;;;;;;;19.67;10.60;;;;;;;;;;2111462;28;20315;-61
2022/05/24 00:35:23;;;;;;;17.00;9.43;;;;;;;;;;2115090;28;20049;-61
2022/05/24 00:36:24;;;;;;;18.23;10.20;;;;;;;;;;2115141;28;20046;-61
2022/05/24 00:37:27;;;;;;;20.63;10.60;;;;;;;;;;2115063;28;20047;-61
2022/05/24 00:38:29;;;;;;;20.23;11.15;;;;;;;;;;2114905;28;20367;-61
2022/05/24 00:39:30;;;;;;;18.55;9.80;;;;;;;;;;2114877;28;20059;-61
2022/05/24 00:40:35;;;;;;;18.58;9.32;;;;;;;;;;2114969;28;20484;-61
2022/05/24 00:41:38;;;;;;;21.25;11.48;;;;;;;;;;2114993;28;20126;-60
2022/05/24 00:42:41;;;;;;;18.77;10.80;;;;;;;;;;2114988;28;20123;-60
2022/05/24 00:43:45;;;;;;;21.40;10.85;;;;;;;;;;2114968;28;20051;-59
2022/05/24 00:44:49;;;;;;;21.83;11.82;;;;;;;;;;2114900;28;20566;-60
2022/05/24 00:45:51;;;;;;;23.45;11.95;;;;;;;;;;2115003;28;20135;-60
2022/05/24 00:46:54;;;;;;;21.35;10.77;;;;;;;;;;2114931;28;20126;-61
2022/05/24 00:47:58;;;;;;;18.50;11.60;;;;;;;;;;2114997;28;20173;-61
2022/05/24 00:49:01;;;;;;;18.50;9.70;;;;;;;;;;2114782;28;20142;-59
2022/05/24 00:50:05;;;;;;;19.27;11.57;;;;;;;;;;2114880;28;20473;-62
2022/05/24 00:51:08;;;;;;;20.92;9.73;;;;;;;;;;2114881;28;20134;-61
2022/05/24 00:52:14;;;;;;;19.42;10.82;;;;;;;;;;2115024;28;20126;-59
2022/05/24 00:53:22;;;;;;;17.95;9.27;;;;;;;;;;2114877;28;20040;-61
2022/05/24 00:54:41;;;;;;;22.00;10.43;;;;;;;;;;2114959;28;20122;-60
2022/05/24 00:55:46;;;;;;;22.15;10.20;;;;;;;;;;2114817;28;20553;-61
2022/05/24 00:56:49;;;;;;;23.58;11.65;;;;;;;;;;2114802;28;20570;-60
2022/05/24 00:57:54;;;;;;;22.40;11.70;;;;;;;;;;2114917;28;20047;-61
2022/05/24 00:58:58;;;;;;;21.38;10.57;;;;;;;;;;2113879;28;20100;-60
2022/05/24 01:00:02;;;;;;;21.60;11.07;;;;;;;;;;2114732;28;20504;-61
2022/05/24 01:01:05;;;;;;;19.38;9.73;;;;;;;;;;2114764;28;20548;-61
2022/05/24 01:02:07;;;;;;;19.92;11.15;;;;;;;;;;2114804;28;20047;-61
2022/05/24 01:03:08;;;;;;;20.92;11.80;;;;;;;;;;2114789;28;20044;-61
2022/05/24 01:04:11;;;;;;;18.33;9.88;;;;;;;;;;2114845;28;20050;-61
2022/05/24 01:05:14;;;;;;;18.20;11.02;;;;;;;;;;2114785;28;20591;-61
2022/05/24 01:06:15;;;;;;;17.45;10.23;;;;;;;;;;2114856;28;20048;-61
2022/05/24 01:07:16;;;;;;;19.17;10.48;;;;;;;;;;2114794;28;20093;-61
2022/05/24 01:08:18;;;;;;;20.73;10.23;;;;;;;;;;2114796;28;20543;-61
2022/05/24 01:09:21;;;;;;;20.42;11.77;;;;;;;;;;2114594;28;20039;-60
2022/05/24 01:10:25;;;;;;;23.98;10.90;;;;;;;;;;2114954;28;20240;-61
2022/05/24 01:11:27;;;;;;;21.88;11.55;;;;;;;;;;2114717;28;20058;-60
2022/05/24 01:12:32;;;;;;;18.38;9.00;;;;;;;;;;2114910;28;20139;-61
2022/05/24 01:13:33;;;;;;;22.08;11.20;;;;;;;;;;2114705;28;20104;-61
2022/05/24 01:14:35;;;;;;;22.10;10.13;;;;;;;;;;2114766;28;20081;-60
2022/05/24 01:15:36;;;;;;;22.23;10.98;;;;;;;;;;2114776;28;20179;-60
2022/05/24 01:16:38;;;;;;;22.55;11.73;;;;;;;;;;2114660;28;20461;-60
2022/05/24 01:17:39;;;;;;;23.23;9.93;;;;;;;;;;2114614;28;20134;-61
2022/05/24 01:18:40;;;;;;;18.42;9.18;;;;;;;;;;2112047;28;20107;-60
2022/05/24 01:19:44;;;;;;;19.00;10.98;;;;;;;;;;2106317;28;20399;-61
2022/05/24 01:20:46;;;;;;;19.77;10.93;;;;;;;;;;2106149;28;20048;-60
2022/05/24 01:21:48;;;;;;;25.85;11.82;;;;;;;;;;2106256;28;20424;-61
2022/05/24 01:23:04;;;;;;;21.65;9.60;;;;;;;;;;2106495;28;20419;-61
2022/05/24 01:24:10;;;;;;;18.98;9.77;;;;;;;;;;2106184;28;20382;-60
2022/05/24 01:25:15;;;;;;;24.02;11.77;;;;;;;;;;2106310;28;20048;-60
2022/05/24 01:26:19;;;;;;;23.23;10.60;;;;;;;;;;2106231;28;20127;-60
2022/05/24 01:27:20;;;;;;;21.98;11.95;;;;;;;;;;2106214;28;20040;-61
2022/05/24 01:28:23;;;;;;;21.50;10.70;;;;;;;;;;2106395;28;20131;-60
2022/05/24 01:29:26;;;;;;;22.27;10.20;;;;;;;;;;2106189;28;20127;-60
2022/05/24 01:30:27;;;;;;;;;;;;;;;;;;2110368;28;20117;-60
2022/05/24 01:36:09;;;;;;;20.42;9.75;;;;;;;;;;2114579;28;20265;-61
2022/05/24 01:36:49;;;;;;;23.15;9.60;;;;;;;;;;2114604;28;20442;-61
2022/05/24 01:37:50;;;;;;;24.45;10.30;;;;;;;;;;2114564;28;20407;-61
2022/05/24 01:38:52;;;;;;;23.63;10.55;;;;;;;;;;2114676;28;20044;-61
2022/05/24 01:39:55;;;;;;;20.63;10.23;;;;;;;;;;2114667;28;20052;-61
2022/05/24 01:40:57;;;;;;;20.92;11.02;;;;;;;;;;2114414;28;20180;-61
2022/05/24 01:41:58;;;;;;;25.90;10.85;;;;;;;;;;2114709;28;20108;-60
2022/05/24 01:43:00;;;;;;;18.70;9.98;;;;;;;;;;2114537;28;20540;-60
2022/05/24 01:44:01;;;;;;;;;;;;;;;;;;2115072;28;20400;-61
2022/05/24 01:45:05;;;;;;;20.35;9.70;;;;;;;;;;2114627;28;19919;-61
2022/05/24 01:46:08;;;;;;;18.33;10.10;;;;;;;;;;2114559;28;20051;-61
2022/05/24 01:47:10;;;;;;;23.63;11.88;;;;;;;;;;2114422;28;20605;-60
2022/05/24 01:48:13;;;;;;;19.67;10.35;;;;;;;;;;2114576;28;20395;-60
2022/05/24 01:49:17;;;;;;;21.70;11.73;;;;;;;;;;2114520;28;20138;-61
2022/05/24 01:50:20;;;;;;;25.38;11.32;;;;;;;;;;2114526;28;20044;-61
2022/05/24 01:51:23;;;;;;;22.67;10.13;;;;;;;;;;2114551;28;20127;-60
2022/05/24 01:52:26;;;;;;;21.60;10.27;;;;;;;;;;2114639;28;20040;-47
2022/05/24 01:53:30;;;;;;;27.02;12.93;;;;;;;;;;2114538;28;20122;-47
2022/05/24 01:54:54;;;;;;;24.73;9.55;;;;;;;;;;2114570;28;20047;-47
2022/05/24 01:55:57;;;;;;;22.58;10.75;;;;;;;;;;2114422;28;20052;-47
2022/05/24 01:57:00;;;;;;;23.48;12.77;;;;;;;;;;2114633;28;20044;-47
2022/05/24 01:58:04;;;;;;;20.95;10.63;;;;;;;;;;2114732;28;20096;-47
2022/05/24 01:59:06;;;;;;;20.75;10.35;;;;;;;;;;2114448;28;20156;-46
2022/05/24 02:00:10;;;;;;;21.73;10.57;;;;;;;;;;2114605;28;20040;-47
2022/05/24 02:01:19;;;;;;;23.90;10.63;;;;;;;;;;2114332;28;20039;-47
2022/05/24 02:02:20;;;;;;;25.25;12.55;;;;;;;;;;2114420;28;20040;-48
2022/05/24 02:03:21;;;;;;;24.60;11.32;;;;;;;;;;2114349;28;20039;-47
2022/05/24 02:04:23;;;;;;;26.20;10.55;;;;;;;;;;2114439;28;20058;-47
2022/05/24 02:05:24;;;;;;;;;;;;;;;;;;2114591;28;20519;-46
2022/05/24 02:06:26;;;;;;;24.58;10.48;;;;;;;;;;2114434;28;19923;-47
2022/05/24 02:07:27;;;;;;;;;;;;;;;;;;2114822;28;20238;-46
2022/05/24 02:08:28;;;;;;;19.73;11.43;;;;;;;;;;2114379;28;19920;-47
2022/05/24 02:09:29;;;;;;;20.42;10.00;;;;;;;;;;2114600;28;20101;-60
2022/05/24 02:10:34;;;;;;;23.48;10.70;;;;;;;;;;2113915;28;20494;-60
2022/05/24 02:11:36;;;;;;;21.65;12.10;;;;;;;;;;2114367;28;20134;-60
2022/05/24 02:12:38;;;;;;;24.00;11.02;;;;;;;;;;2114476;28;20123;-60
2022/05/24 02:13:41;;;;;;;24.92;11.20;;;;;;;;;;2114303;28;20364;-60
2022/05/24 02:14:45;;;;;;;28.48;13.68;;;;;;;;;;2114308;28;20127;-60
2022/05/24 02:15:48;;;;;;;21.88;11.60;;;;;;;;;;2114340;28;20093;-60
2022/05/24 02:16:51;;;;;;;23.00;12.40;;;;;;;;;;2114331;28;20181;-60
2022/05/24 02:17:54;;;;;;;22.25;10.50;;;;;;;;;;2114400;28;20146;-60
2022/05/24 02:18:56;;;;;;;23.40;11.60;;;;;;;;;;2109347;28;20087;-60
2022/05/24 02:19:59;;;;;;;23.63;9.93;;;;;;;;;;2105985;28;20123;-61
2022/05/24 02:21:01;;;;;;;22.05;10.75;;;;;;;;;;2105788;28;20159;-61
2022/05/24 02:22:04;;;;;;;19.25;10.27;;;;;;;;;;2106062;28;20261;-60
2022/05/24 02:23:05;;;;;;;21.73;11.02;;;;;;;;;;2106157;28;20052;-47
2022/05/24 02:24:14;;;;;;;23.83;10.50;;;;;;;;;;2105830;28;20475;-47
2022/05/24 02:25:16;;;;;;;23.08;11.20;;;;;;;;;;2105871;28;20481;-47
2022/05/24 02:26:19;;;;;;;19.45;10.68;;;;;;;;;;2105810;28;20135;-47
2022/05/24 02:27:19;;;;;;;23.98;11.80;;;;;;;;;;2114266;28;20043;-47
2022/05/24 02:28:22;;;;;;;19.73;10.73;;;;;;;;;;2114468;28;20043;-47
2022/05/24 02:29:23;;;;;;;21.02;11.23;;;;;;;;;;2114264;28;20044;-47
2022/05/24 02:30:26;;;;;;;19.15;10.40;;;;;;;;;;2114265;28;20382;-47
2022/05/24 02:31:27;;;;;;;22.77;10.40;;;;;;;;;;2114206;28;20571;-47
2022/05/24 02:32:29;;;;;;;21.17;11.83;;;;;;;;;;2114222;28;20126;-47
2022/05/24 02:33:29;;;;;;;20.80;10.77;;;;;;;;;;2114275;28;20824;-47
2022/05/24 02:34:31;;;;;;;20.05;11.80;;;;;;;;;;2114160;28;20048;-47
2022/05/24 02:35:32;;;;;;;21.05;10.93;;;;;;;;;;2114204;28;20638;-48
2022/05/24 02:36:33;;;;;;;23.55;10.82;;;;;;;;;;2114426;28;20100;-60
2022/05/24 02:37:35;;;;;;;20.60;11.57;;;;;;;;;;2114253;28;20127;-60
2022/05/24 02:38:37;;;;;;;23.25;11.70;;;;;;;;;;2113984;28;20142;-60
2022/05/24 02:42:13;;;;;;;25.05;12.35;;;;;;;;;;2114345;28;20043;-60
2022/05/24 02:43:14;;;;;;;21.38;11.52;;;;;;;;;;2114424;28;20126;-61
2022/05/24 02:44:16;;;;;;;21.83;11.05;;;;;;;;;;2114043;28;20442;-60
2022/05/24 02:45:17;;;;;;;;;;;;;;;;;;2114668;28;20111;-60
2022/05/24 02:46:19;;;;;;;23.08;10.65;;;;;;;;;;2113992;28;20362;-60
2022/05/24 02:47:20;;;;;;;33.50;12.00;;;;;;;;;;2114434;28;20050;-47
2022/05/24 02:48:21;;;;;;;21.50;11.17;;;;;;;;;;2114201;28;20118;-47
2022/05/24 02:49:23;;;;;;;22.98;10.63;;;;;;;;;;2114289;28;20256;-47
2022/05/24 02:50:24;;;;;;;21.95;11.40;;;;;;;;;;2114142;28;20043;-47
2022/05/24 02:51:26;;;;;;;22.10;11.52;;;;;;;;;;2114264;28;20180;-46
2022/05/24 02:52:27;;;;;;;21.85;11.60;;;;;;;;;;2114186;28;20054;-47
2022/05/24 02:53:28;;;;;;;22.27;11.52;;;;;;;;;;2114224;28;20412;-47
2022/05/24 02:54:30;;;;;;;19.05;11.32;;;;;;;;;;2114088;28;20139;-47
2022/05/24 02:55:32;;;;;;;23.90;12.85;;;;;;;;;;2114225;28;20043;-48
2022/05/24 02:56:33;;;;;;;26.10;11.10;;;;;;;;;;2114067;28;20054;-47
2022/05/24 02:57:34;;;;;;;27.10;11.52;;;;;;;;;;2114042;28;20127;-47
2022/05/24 02:58:35;;;;;;;26.88;11.88;;;;;;;;;;2113996;28;20054;-46
2022/05/24 02:59:36;;;;;;;25.27;13.48;;;;;;;;;;2114221;28;20048;-60
2022/05/24 03:00:43;;;;;;;23.60;11.23;;;;;;;;;;2114210;28;20099;-60
2022/05/24 03:01:45;;;;;;;27.20;11.30;;;;;;;;;;2113946;28;20048;-60
2022/05/24 03:02:46;;;;;;;26.92;12.05;;;;;;;;;;2114009;28;20552;-60
2022/05/24 03:03:48;;;;;;;27.63;12.50;;;;;;;;;;2113941;28;20043;-60
2022/05/24 03:04:49;;;;;;;23.17;13.48;;;;;;;;;;2114180;28;20078;-60
2022/05/24 03:05:51;;;;;;;23.75;11.63;;;;;;;;;;2114167;28;20044;-60
2022/05/24 03:09:36;;;;;;;28.70;14.45;;;;;;;;;;2114339;28;20123;-47
2022/05/24 03:10:38;;;;;;;26.13;12.70;;;;;;;;;;2114121;28;20420;-47
2022/05/24 03:14:19;;;;;;;29.02;14.60;;;;;;;;;;2113890;28;20048;-47
2022/05/24 03:15:20;;;;;;;25.20;13.65;;;;;;;;;;2113953;28;20471;-46
2022/05/24 03:16:21;;;;;;;23.03;12.20;;;;;;;;;;2114220;28;20067;-46
2022/05/24 03:17:24;;;;;;;27.48;14.82;;;;;;;;;;2114101;28;20042;-47
2022/05/24 03:18:25;;;;;;;34.22;13.13;;;;;;;;;;2113323;28;20127;-47
2022/05/24 03:19:26;;;;;;;31.00;13.30;;;;;;;;;;2105533;28;20093;-47
2022/05/24 03:20:27;;;;;;;27.55;14.18;;;;;;;;;;2105850;28;20335;-60
2022/05/24 03:21:28;;;;;;;32.85;15.23;;;;;;;;;;2105594;28;20515;-60
2022/05/24 03:22:29;;;;;;;31.08;15.43;;;;;;;;;;2106233;28;20040;-60
2022/05/24 03:23:30;;;;;;;25.90;15.38;;;;;;;;;;2107137;28;20089;-60
2022/05/24 03:24:31;;;;;;;29.10;14.27;;;;;;;;;;2106933;28;20123;-60
2022/05/24 03:25:33;;;;;;;34.92;17.33;;;;;;;;;;2107127;28;20485;-60
2022/05/24 03:26:34;;;;;;;33.35;17.60;;;;;;;;;;2106822;28;20469;-60
2022/05/24 03:27:36;;;;;;;38.15;16.90;;;;;;;;;;2107010;28;20143;-60
2022/05/24 03:28:37;;;;;;;35.90;14.82;;;;;;;;;;2106876;28;20446;-60
2022/05/24 03:29:39;;;;;;;30.30;16.73;;;;;;;;;;2107079;28;20135;-60
2022/05/24 03:30:41;;;;;;;25.58;13.55;;;;;;;;;;2107150;28;20055;-61
2022/05/24 03:31:43;;;;;;;30.83;15.95;;;;;;;;;;2106981;28;20508;-61
2022/05/24 03:32:44;;;;;;;36.03;13.73;;;;;;;;;;2106963;28;20059;-60
2022/05/24 03:33:46;;;;;;;27.60;13.77;;;;;;;;;;2107051;28;20115;-60
2022/05/24 03:34:47;;;;;;;26.38;11.95;;;;;;;;;;2107193;28;20503;-50
2022/05/24 03:35:49;;;;;;;26.67;14.50;;;;;;;;;;2107125;28;20097;-46
2022/05/24 03:36:50;;;;;;;24.50;12.50;;;;;;;;;;2106983;28;20450;-46
2022/05/24 03:37:51;;;;;;;25.80;14.55;;;;;;;;;;2107183;28;20127;-47
2022/05/24 03:38:52;;;;;;;30.15;13.23;;;;;;;;;;2106891;28;20409;-47
2022/05/24 03:39:53;;;;;;;31.02;14.75;;;;;;;;;;2106956;28;20098;-46
2022/05/24 03:40:58;;;;;;;25.85;13.57;;;;;;;;;;2106997;28;20131;-47
2022/05/24 03:41:59;;;;;;;28.10;13.75;;;;;;;;;;2107087;28;20485;-60
2022/05/24 03:43:01;;;;;;;27.63;14.87;;;;;;;;;;2106971;28;20131;-58
2022/05/24 03:44:02;;;;;;;25.85;13.95;;;;;;;;;;2106908;28;20048;-60
2022/05/24 03:45:05;;;;;;;26.13;13.17;;;;;;;;;;2107048;28;20044;-60
2022/05/24 03:46:07;;;;;;;25.88;13.90;;;;;;;;;;2106904;28;20132;-61
2022/05/24 03:47:08;;;;;;;24.17;13.38;;;;;;;;;;2106984;28;20047;-60
2022/05/24 03:48:10;;;;;;;24.80;12.67;;;;;;;;;;2107265;28;20067;-61
2022/05/24 03:49:11;;;;;;;25.75;13.68;;;;;;;;;;2106851;28;20491;-60
2022/05/24 03:50:12;;;;;;;25.87;13.67;;;;;;;;;;2107060;28;20059;-61
2022/05/24 03:51:13;;;;;;;26.80;14.20;;;;;;;;;;2106757;28;20525;-60
2022/05/24 03:52:15;;;;;;;23.85;11.55;;;;;;;;;;2107199;28;20093;-47
2022/05/24 03:53:16;;;;;;;30.95;14.10;;;;;;;;;;2106847;28;20067;-47
2022/05/24 03:54:17;;;;;;;30.13;12.33;;;;;;;;;;2106884;28;20047;-47
2022/05/24 03:55:18;;;;;;;29.98;14.55;;;;;;;;;;2106777;28;20404;-47
2022/05/24 03:56:19;;;;;;;26.42;13.93;;;;;;;;;;2106939;28;20072;-46
2022/05/24 03:58:40;;;;;;;26.63;13.88;;;;;;;;;;2115320;28;20055;-47
2022/05/24 03:59:41;;;;;;;27.52;14.32;;;;;;;;;;2115316;28;20134;-47
2022/05/24 04:00:44;;;;;;;24.13;12.48;;;;;;;;;;2115270;28;20626;-47
2022/05/24 04:01:45;;;;;;;26.77;14.15;;;;;;;;;;2115360;28;20060;-47
2022/05/24 04:02:46;;;;;;;30.67;14.37;;;;;;;;;;2115238;28;20431;-47
2022/05/24 04:03:48;;;;;;;28.20;15.10;;;;;;;;;;2115212;28;20082;-47
2022/05/24 04:04:49;;;;;;;27.42;15.23;;;;;;;;;;2115244;28;20047;-47
2022/05/24 04:05:51;;;;;;;28.95;15.15;;;;;;;;;;2115536;28;20069;-60
2022/05/24 04:06:52;;;;;;;25.27;15.38;;;;;;;;;;2115161;28;20043;-61
2022/05/24 04:07:53;;;;;;;25.77;15.43;;;;;;;;;;2115281;28;20131;-60
2022/05/24 04:08:54;;;;;;;27.10;15.43;;;;;;;;;;2115156;28;20055;-61
2022/05/24 04:09:55;;;;;;;24.30;14.02;;;;;;;;;;2115366;28;20510;-46
2022/05/24 04:11:01;;;;;;;23.38;13.15;;;;;;;;;;2115261;28;20122;-47
2022/05/24 04:12:02;;;;;;;25.17;14.43;;;;;;;;;;2115199;28;20123;-47
2022/05/24 04:13:04;;;;;;;22.77;14.00;;;;;;;;;;2115286;28;20055;-47
2022/05/24 04:14:05;;;;;;;23.00;11.45;;;;;;;;;;2115022;28;20047;-47
2022/05/24 04:15:06;;;;;;;25.90;14.02;;;;;;;;;;2115223;28;20050;-47
2022/05/24 04:16:10;;;;;;;23.55;13.27;;;;;;;;;;2115280;28;20046;-47
2022/05/24 04:17:11;;;;;;;27.58;14.43;;;;;;;;;;2115339;28;20052;-47
2022/05/24 04:18:12;;;;;;;23.25;13.43;;;;;;;;;;2115122;28;20058;-49
2022/05/24 04:19:14;;;;;;;23.00;12.65;;;;;;;;;;2111567;28;20130;-47
2022/05/24 04:20:15;;;;;;;23.38;13.40;;;;;;;;;;2115090;28;20458;-47
2022/05/24 04:21:17;;;;;;;28.48;14.40;;;;;;;;;;2115159;28;20047;-47
2022/05/24 04:22:18;;;;;;;30.35;13.93;;;;;;;;;;2115086;28;20420;-46
2022/05/24 04:23:21;;;;;;;22.73;13.00;;;;;;;;;;2115088;28;20044;-46
2022/05/24 04:24:22;;;;;;;22.08;11.85;;;;;;;;;;2115011;28;20048;-47
2022/05/24 04:25:24;;;;;;;24.83;12.43;;;;;;;;;;2115165;28;20131;-46
2022/05/24 04:26:24;;;;;;;23.10;12.52;;;;;;;;;;2114974;28;20069;-47
2022/05/24 04:27:26;;;;;;;22.17;11.55;;;;;;;;;;2114999;28;20039;-47
2022/05/24 04:28:26;;;;;;;26.80;12.95;;;;;;;;;;2115057;28;20531;-46
2022/05/24 04:29:35;;;;;;;21.27;11.88;;;;;;;;;;2114937;28;20043;-47
2022/05/24 04:30:36;;;;;;;16.60;9.45;;;;;;;;;;2114997;28;20485;-46
2022/05/24 04:31:37;;;;;;;22.00;11.70;;;;;;;;;;2114965;28;20044;-46
2022/05/24 04:32:38;;;;;;;24.13;12.47;;;;;;;;;;2115027;28;20054;-47
2022/05/24 04:33:39;;;;;;;20.85;12.15;;;;;;;;;;2114675;28;20295;-46
2022/05/24 04:34:41;;;;;;;20.60;11.55;;;;;;;;;;2115132;28;20051;-47
2022/05/24 04:35:42;;;;;;;;;;;;;;;;;;2115439;28;20393;-46
2022/05/24 04:36:43;;;;;;;22.77;12.30;;;;;;;;;;2115118;28;19961;-48
2022/05/24 04:37:44;;;;;;;20.53;11.90;;;;;;;;;;2115161;28;20075;-46
2022/05/24 04:38:45;;;;;;;18.60;10.32;;;;;;;;;;2114936;28;20775;-46
2022/05/24 04:39:46;;;;;;;19.73;11.47;;;;;;;;;;2115207;28;20051;-47
2022/05/24 04:42:18;;;;;;;20.30;10.60;;;;;;;;;;2115291;28;20126;-47
2022/05/24 04:43:20;;;;;;;21.52;11.48;;;;;;;;;;2114938;28;20036;-46
2022/05/24 04:44:21;;;;;;;23.58;11.18;;;;;;;;;;2114976;28;20130;-46
2022/05/24 04:45:22;;;;;;;17.97;9.87;;;;;;;;;;2114864;28;20544;-47
2022/05/24 04:46:23;;;;;;;19.60;10.18;;;;;;;;;;2114837;28;20447;-46
2022/05/24 04:47:25;;;;;;;20.73;10.63;;;;;;;;;;2115126;28;20048;-61
2022/05/24 04:48:26;;;;;;;19.05;9.73;;;;;;;;;;2114870;28;20280;-61
2022/05/24 04:49:27;;;;;;;19.70;10.03;;;;;;;;;;2114927;28;20094;-61
2022/05/24 04:50:29;;;;;;;19.80;10.55;;;;;;;;;;2114821;28;20132;-61
2022/05/24 04:51:33;;;;;;;20.55;11.57;;;;;;;;;;2114969;28;20051;-61
2022/05/24 04:52:34;;;;;;;23.48;9.90;;;;;;;;;;2114872;28;20055;-61
2022/05/24 04:53:36;;;;;;;20.85;9.85;;;;;;;;;;2114825;28;20157;-61
2022/05/24 04:54:37;;;;;;;17.63;8.82;;;;;;;;;;2114798;28;20055;-62
2022/05/24 04:55:39;;;;;;;14.05;8.63;;;;;;;;;;2115026;28;20075;-62
2022/05/24 04:56:40;;;;;;;17.55;8.23;;;;;;;;;;2114914;28;20146;-61
2022/05/24 04:57:41;;;;;;;15.43;7.30;;;;;;;;;;2115044;28;20080;-61
2022/05/24 04:58:42;;;;;;;14.13;7.70;;;;;;;;;;2114826;28;20131;-61
2022/05/24 04:59:43;;;;;;;14.50;7.67;;;;;;;;;;2114891;28;20047;-61
2022/05/24 05:00:50;;;;;;;11.63;6.88;;;;;;;;;;2114928;28;20048;-61
2022/05/24 05:01:51;;;;;;;13.95;6.65;;;;;;;;;;2115077;28;20492;-46
2022/05/24 05:02:53;;;;;;;11.20;5.47;;;;;;;;;;2114786;28;20052;-46
2022/05/24 05:03:54;;;;;;;10.80;6.13;;;;;;;;;;2114952;28;20180;-46
2022/05/24 05:04:55;;;;;;;10.27;6.63;;;;;;;;;;2114956;28;20051;-46
2022/05/24 05:05:57;;;;;;;11.27;5.60;;;;;;;;;;2115106;28;20347;-61
2022/05/24 05:06:58;;;;;;;12.10;5.00;;;;;;;;;;2114938;28;20047;-61
2022/05/24 05:07:59;;;;;;;9.70;5.25;;;;;;;;;;2114816;28;20579;-61
2022/05/24 05:09:00;;;;;;;9.57;5.07;;;;;;;;;;2114980;28;20052;-46
2022/05/24 05:10:01;;;;;;;9.13;5.20;;;;;;;;;;2114919;28;20065;-46
2022/05/24 05:11:02;;;;;;;9.02;5.55;;;;;;;;;;2114807;28;20475;-46
2022/05/24 05:12:04;;;;;;;8.83;4.87;;;;;;;;;;2114890;28;20051;-47
2022/05/24 05:13:06;;;;;;;8.25;4.65;;;;;;;;;;2115127;28;20061;-61
2022/05/24 05:14:07;;;;;;;;;;;;;;;;;;2115225;28;20043;-62
2022/05/24 05:15:08;;;;;;;10.85;4.85;;;;;;;;;;2114493;28;20057;-62
2022/05/24 05:16:09;;;;;;;11.20;5.00;;;;;;;;;;2114782;28;20591;-62
2022/05/24 05:17:11;;;;;;;8.25;4.25;;;;;;;;;;2114912;28;20069;-62
2022/05/24 05:18:14;;;;;;;8.90;4.20;;;;;;;;;;2114982;28;20100;-62
2022/05/24 05:19:15;;;;;;;8.82;4.50;;;;;;;;;;2107079;28;20451;-60
2022/05/24 05:20:16;;;;;;;9.93;4.23;;;;;;;;;;2106326;28;20048;-61
2022/05/24 05:21:17;;;;;;;5.35;3.33;;;;;;;;;;2106524;28;20382;-61
2022/05/24 05:22:19;;;;;;;7.72;4.25;;;;;;;;;;2106433;28;20071;-61
2022/05/24 05:23:20;;;;;;;7.70;3.70;;;;;;;;;;2106600;28;20048;-62
2022/05/24 05:24:21;;;;;;;6.33;3.40;;;;;;;;;;2106222;28;20044;-61
2022/05/24 05:25:22;;;;;;;5.15;3.10;;;;;;;;;;2106367;28;20359;-61
2022/05/24 05:26:24;;;;;;;5.97;3.73;;;;;;;;;;2106304;28;20503;-61
2022/05/24 05:27:25;;;;;;;6.82;3.38;;;;;;;;;;2106207;28;20775;-60
2022/05/24 05:28:26;;;;;;;7.78;3.17;;;;;;;;;;2106296;28;20123;-61
2022/05/24 05:32:16;;;;;;;8.48;3.63;;;;;;;;;;2106201;28;20054;-61
2022/05/24 05:33:17;;;;;;;8.02;3.33;;;;;;;;;;2106198;28;20457;-61
2022/05/24 05:34:18;;;;;;;6.07;3.03;;;;;;;;;;2106255;28;20055;-61
2022/05/24 05:35:19;;;;;;;6.32;3.25;;;;;;;;;;2106563;28;20185;-46
2022/05/24 05:36:21;;;;;;;7.43;2.97;;;;;;;;;;2106451;28;20154;-46
2022/05/24 05:37:23;;;;;;;6.38;3.15;;;;;;;;;;2106406;28;20481;-61
2022/05/24 05:38:24;;;;;;;7.82;3.50;;;;;;;;;;2106203;28;20142;-61
2022/05/24 05:39:26;;;;;;;6.43;3.30;;;;;;;;;;2106318;28;20044;-59
2022/05/24 05:40:27;;;;;;;7.47;3.05;;;;;;;;;;2106169;28;20046;-46
2022/05/24 05:41:29;;;;;;;6.93;3.47;;;;;;;;;;2106243;28;20048;-48
2022/05/24 05:42:30;;;;;;;8.55;3.00;;;;;;;;;;2106279;28;20051;-47
2022/05/24 05:43:31;;;;;;;5.40;2.97;;;;;;;;;;2106236;28;20048;-47
2022/05/24 05:44:39;;;;;;;5.15;3.22;;;;;;;;;;2106354;28;20127;-47
2022/05/24 05:45:41;;;;;;;5.75;3.08;;;;;;;;;;2105683;28;20044;-46
2022/05/24 05:46:42;;;;;;;8.37;3.13;;;;;;;;;;2106332;28;20080;-46
2022/05/24 05:47:43;;;;;;;7.30;3.10;;;;;;;;;;2106048;28;20462;-44
2022/05/24 05:48:44;;;;;;;5.60;2.90;;;;;;;;;;2106409;28;20070;-59
2022/05/24 05:49:46;;;;;;;4.50;2.80;;;;;;;;;;2106101;28;20510;-61
2022/05/24 05:50:47;;;;;;;7.05;2.88;;;;;;;;;;2105946;28;20097;-61
2022/05/24 05:51:50;;;;;;;7.80;3.20;;;;;;;;;;2106140;28;20485;-62
2022/05/24 05:52:51;;;;;;;5.47;2.95;;;;;;;;;;2106124;28;20126;-59
2022/05/24 05:53:52;;;;;;;5.68;2.65;;;;;;;;;;2106474;28;20130;-47
2022/05/24 05:54:53;;;;;;;5.80;2.90;;;;;;;;;;2106138;28;20064;-47
2022/05/24 05:55:54;;;;;;;6.63;2.78;;;;;;;;;;2106191;28;20138;-47
2022/05/24 05:56:55;;;;;;;5.38;2.28;;;;;;;;;;2106132;28;20122;-47
2022/05/24 05:57:56;;;;;;;3.45;2.28;;;;;;;;;;2106071;28;20050;-45
2022/05/24 05:58:57;;;;;;;5.63;2.87;;;;;;;;;;2105895;28;20048;-47
2022/05/24 05:59:58;;;;;;;6.25;3.08;;;;;;;;;;2106145;28;20097;-47
2022/05/24 06:01:01;;;;;;;3.90;2.40;;;;;;;;;;2106375;28;20048;-47
2022/05/24 06:02:05;;;;;;;5.32;2.70;;;;;;;;;;2106021;28;20128;-47
2022/05/24 06:03:06;;;;;;;5.72;2.78;;;;;;;;;;2106038;28;20109;-47
2022/05/24 06:04:07;;;;;;;4.07;2.47;;;;;;;;;;2106252;28;20426;-62
2022/05/24 06:05:10;;;;;;;4.90;2.50;;;;;;;;;;2106149;28;20071;-62
2022/05/24 06:06:12;;;;;;;5.38;2.78;;;;;;;;;;2106006;28;20044;-62
2022/05/24 06:07:14;;;;;;;5.13;2.53;;;;;;;;;;2106147;28;20461;-47
2022/05/24 06:08:15;;;;;;;;;;;;;;;;;;2106491;28;20051;-48
2022/05/24 06:09:22;;;;;;;7.22;2.60;;;;;;;;;;2106399;28;19982;-62
2022/05/24 06:10:23;;;;;;;4.65;2.95;;;;;;;;;;2106043;28;20131;-62
2022/05/24 06:11:24;;;;;;;5.57;2.20;;;;;;;;;;2107017;28;20172;-62
2022/05/24 06:12:26;;;;;;;6.43;2.53;;;;;;;;;;2114815;28;20039;-62
2022/05/24 06:13:27;;;;;;;22.92;2.60;;;;;;;;;;2114616;28;20071;-47
2022/05/24 06:14:28;;;;;;;3.78;2.17;;;;;;;;;;2114634;28;20043;-47
2022/05/24 06:15:50;;;;;;;4.32;1.85;;;;;;;;;;2114811;28;20057;-60
2022/05/24 06:16:51;;;;;;;5.03;1.48;;;;;;;;;;2114650;28;20127;-62
2022/05/24 06:17:53;;;;;;;2.78;1.83;;;;;;;;;;2114373;28;20127;-62
2022/05/24 06:18:54;;;;;;;6.72;2.15;;;;;;;;;;2114434;28;20043;-62
2022/05/24 06:19:58;;;;;;;3.33;1.83;;;;;;;;;;2114602;28;20039;-62
2022/05/24 06:20:59;;;;;;;3.47;1.65;;;;;;;;;;2114337;28;20482;-61
2022/05/24 06:22:00;;;;;;;3.35;1.77;;;;;;;;;;2114342;28;20048;-62
2022/05/24 06:23:02;;;;;;;4.23;1.80;;;;;;;;;;2115143;28;20044;-48
2022/05/24 06:24:03;;;;;;;;;;;;;;;;;;2114691;28;20408;-48